Time;durP1;ratioP1;P1;durP2;ratioP2;P2;SDS_P1;SDS_P2;PMS_P1;PMS_P2;Temp;Humidity;BMP_temperature;BMP_pressure;BME280_temperature;BME280_humidity;BME280_pressure;Samples;Min_cycle;Max_cycle;Signal;HPM_P1;HPM_P2
2021/06/21 00:00:39;;;;;;;1.50;0.90;;;21.50;96.50;;;;;;4995526;28;20945;-82
2021/06/21 00:03:05;;;;;;;1.50;0.90;;;21.50;96.30;;;;;;4998804;28;20575;-82
2021/06/21 00:05:35;;;;;;;1.50;0.90;;;21.50;95.80;;;;;;5000385;28;20559;-82
2021/06/21 00:08:02;;;;;;;1.50;0.90;;;21.50;95.70;;;;;;5006017;28;20488;-79
2021/06/21 00:10:29;;;;;;;1.50;0.90;;;21.50;95.30;;;;;;4995476;28;20485;-85
2021/06/21 00:12:56;;;;;;;1.50;0.90;;;21.50;95.60;;;;;;5000237;28;20480;-81
2021/06/21 00:15:26;;;;;;;1.47;0.90;;;21.50;96.10;;;;;;4994211;28;20817;-79
2021/06/21 00:17:53;;;;;;;1.47;0.90;;;21.50;96.10;;;;;;4999307;28;20476;-80
2021/06/21 00:20:21;;;;;;;1.50;0.90;;;21.50;96.80;;;;;;4997699;28;20480;-82
2021/06/21 00:22:50;;;;;;;1.50;1.00;;;21.50;96.70;;;;;;4998517;28;20484;-81
2021/06/21 00:25:17;;;;;;;1.50;0.90;;;21.40;97.40;;;;;;4994814;28;20556;-82
2021/06/21 00:27:44;;;;;;;1.50;0.93;;;21.40;98.00;;;;;;4999141;28;20491;-79
2021/06/21 00:30:14;;;;;;;1.50;0.93;;;21.30;98.20;;;;;;4995483;28;20738;-83
2021/06/21 00:32:44;;;;;;;1.50;0.90;;;21.20;98.20;;;;;;4998316;28;20480;-80
2021/06/21 00:35:13;;;;;;;1.50;0.90;;;21.20;98.20;;;;;;4995937;28;20457;-81
2021/06/21 00:37:39;;;;;;;1.50;0.90;;;21.10;98.20;;;;;;4998529;28;20491;-81
2021/06/21 00:40:09;;;;;;;1.50;0.90;;;21.10;98.20;;;;;;5007315;28;20650;-79
2021/06/21 00:42:39;;;;;;;1.50;0.90;;;21.10;98.20;;;;;;5002741;28;20476;-81
2021/06/21 00:45:08;;;;;;;1.50;0.90;;;21.10;98.20;;;;;;4999651;28;20483;-83
2021/06/21 00:47:34;;;;;;;1.50;0.90;;;21.00;98.20;;;;;;5003993;28;20492;-81
2021/06/21 00:50:03;;;;;;;1.50;0.90;;;21.00;98.20;;;;;;4996252;28;20481;-80
2021/06/21 00:52:30;;;;;;;1.50;1.00;;;21.00;98.20;;;;;;4996564;28;20492;-81
2021/06/21 00:55:01;;;;;;;1.50;0.90;;;21.00;98.20;;;;;;5008447;28;20482;-82
2021/06/21 00:57:28;;;;;;;1.50;0.90;;;21.00;98.20;;;;;;4997710;28;20519;-80
2021/06/21 00:59:58;;;;;;;1.50;0.90;;;21.10;98.20;;;;;;4997522;28;21072;-81
2021/06/21 01:02:25;;;;;;;1.50;0.90;;;21.10;98.20;;;;;;4995907;28;20950;-80
2021/06/21 01:04:52;;;;;;;1.50;0.97;;;21.10;98.20;;;;;;4993057;28;20496;-81
2021/06/21 01:07:20;;;;;;;1.50;0.90;;;21.10;98.20;;;;;;4995393;28;21174;-83
2021/06/21 01:09:49;;;;;;;1.50;0.90;;;21.10;98.20;;;;;;4996389;28;20502;-81
2021/06/21 01:12:38;;;;;;;1.50;0.90;;;21.10;98.20;;;;;;4995909;28;20527;-81
2021/06/21 01:15:08;;;;;;;1.50;0.90;;;21.10;98.20;;;;;;4992863;28;20461;-84
2021/06/21 01:17:40;;;;;;;1.50;0.90;;;21.10;98.20;;;;;;4990600;28;20490;-81
2021/06/21 01:20:44;;;;;;;1.50;1.10;;;21.00;98.20;;;;;;4994529;28;20905;-82
2021/06/21 01:23:50;;;;;;;1.50;0.97;;;21.00;98.20;;;;;;4889407;29;20472;-82
2021/06/21 01:26:20;;;;;;;1.50;0.90;;;21.00;98.20;;;;;;4988046;28;20494;-82
2021/06/21 01:29:04;;;;;;;1.50;0.90;;;21.00;98.20;;;;;;5005278;28;20576;-81
2021/06/21 01:31:46;;;;;;;1.50;1.10;;;20.90;98.20;;;;;;4987971;28;21081;-81
2021/06/21 01:34:17;;;;;;;1.50;1.00;;;20.90;98.20;;;;;;5000603;28;20465;-82
2021/06/21 01:36:47;;;;;;;1.50;0.90;;;20.90;98.20;;;;;;4983524;28;20472;-82
2021/06/21 01:39:14;;;;;;;1.50;0.90;;;20.80;98.20;;;;;;4999044;28;20986;-82
2021/06/21 01:41:45;;;;;;;1.50;0.90;;;20.80;98.20;;;;;;4996144;28;20471;-81
2021/06/21 01:44:14;;;;;;;1.50;0.90;;;20.80;98.20;;;;;;5005114;28;20491;-82
2021/06/21 01:46:42;;;;;;;1.50;0.90;;;20.80;98.20;;;;;;5001277;28;20510;-83
2021/06/21 01:49:13;;;;;;;1.50;0.90;;;20.80;98.20;;;;;;5002923;28;20871;-83
2021/06/21 01:51:44;;;;;;;1.50;1.00;;;20.70;98.20;;;;;;4995785;28;20570;-84
2021/06/21 01:54:15;;;;;;;1.70;1.20;;;20.70;98.20;;;;;;5002509;28;20461;-83
2021/06/21 01:56:46;;;;;;;1.50;0.90;;;20.70;98.20;;;;;;4992293;28;21015;-83
2021/06/21 01:59:14;;;;;;;1.50;0.90;;;20.70;98.20;;;;;;5006652;28;20519;-81
2021/06/21 02:01:44;;;;;;;1.53;1.00;;;20.70;98.20;;;;;;4993884;28;20518;-81
2021/06/21 02:04:14;;;;;;;1.50;0.90;;;20.70;98.20;;;;;;5002221;28;20496;-79
2021/06/21 02:06:43;;;;;;;1.50;0.90;;;20.60;98.20;;;;;;4990675;28;20888;-82
2021/06/21 02:09:11;;;;;;;1.50;0.90;;;20.70;98.20;;;;;;5005591;28;20487;-80
2021/06/21 02:11:38;;;;;;;1.50;0.90;;;20.60;98.20;;;;;;5000497;28;20571;-82
2021/06/21 02:14:06;;;;;;;1.50;0.90;;;20.60;98.20;;;;;;5002278;28;20928;-81
2021/06/21 02:16:34;;;;;;;1.50;1.00;;;20.60;98.20;;;;;;4991598;28;20489;-81
2021/06/21 02:19:02;;;;;;;1.50;0.90;;;20.60;98.20;;;;;;5011258;28;20494;-80
2021/06/21 02:21:30;;;;;;;1.50;0.90;;;20.60;98.20;;;;;;4999061;28;20476;-83
2021/06/21 02:23:58;;;;;;;1.50;1.00;;;20.60;98.20;;;;;;5012751;28;20492;-82
2021/06/21 02:26:26;;;;;;;1.60;1.20;;;20.60;98.20;;;;;;4990844;28;20476;-81
2021/06/21 02:28:56;;;;;;;1.50;1.00;;;20.60;98.20;;;;;;5005706;28;21067;-82
2021/06/21 02:31:23;;;;;;;1.50;0.90;;;20.60;98.20;;;;;;4992542;28;20609;-84
2021/06/21 02:33:50;;;;;;;1.50;1.00;;;20.60;98.20;;;;;;5006568;28;20464;-82
2021/06/21 02:36:17;;;;;;;1.50;0.90;;;20.60;98.20;;;;;;4989775;28;20995;-80
2021/06/21 02:38:44;;;;;;;1.50;0.90;;;20.60;98.20;;;;;;5009812;28;20489;-83
2021/06/21 02:41:12;;;;;;;1.50;1.00;;;20.60;98.20;;;;;;4997840;28;20906;-82
2021/06/21 02:43:39;;;;;;;1.50;0.90;;;20.60;98.20;;;;;;5012771;28;20540;-80
2021/06/21 02:46:06;;;;;;;1.50;1.00;;;20.60;98.20;;;;;;4986799;28;20488;-84
2021/06/21 02:48:33;;;;;;;1.50;1.00;;;20.50;98.20;;;;;;5007173;28;20805;-82
2021/06/21 02:51:02;;;;;;;1.50;0.90;;;20.50;98.20;;;;;;4996083;28;20456;-84
2021/06/21 02:53:38;;;;;;;1.50;0.90;;;20.60;98.20;;;;;;5010254;28;20461;-82
2021/06/21 02:56:10;;;;;;;1.50;0.90;;;20.50;98.20;;;;;;4997417;28;21026;-82
2021/06/21 02:58:42;;;;;;;1.50;0.90;;;20.50;98.20;;;;;;5005648;28;20875;-81
2021/06/21 03:01:12;;;;;;;1.50;0.90;;;20.60;98.20;;;;;;4991190;28;21194;-82
2021/06/21 03:03:42;;;;;;;1.50;0.90;;;20.50;98.20;;;;;;5005317;28;20477;-81
2021/06/21 03:06:10;;;;;;;1.50;0.90;;;20.50;98.20;;;;;;4986683;28;20968;-82
2021/06/21 03:08:38;;;;;;;1.50;0.90;;;20.60;98.20;;;;;;5005202;28;20457;-83
2021/06/21 03:11:05;;;;;;;1.50;0.90;;;20.60;98.20;;;;;;4987740;28;20473;-84
2021/06/21 03:13:33;;;;;;;1.50;0.90;;;20.70;98.20;;;;;;5006399;28;20466;-82
2021/06/21 03:16:02;;;;;;;1.50;0.90;;;20.70;98.20;;;;;;4990062;28;20460;-84
2021/06/21 03:18:30;;;;;;;1.47;0.90;;;20.80;98.20;;;;;;5006876;28;20797;-84
2021/06/21 03:20:59;;;;;;;1.50;0.90;;;20.80;98.20;;;;;;5001527;28;20563;-83
2021/06/21 03:23:28;;;;;;;1.50;0.90;;;20.80;98.20;;;;;;5007850;28;20461;-82
2021/06/21 03:25:57;;;;;;;1.50;0.90;;;20.90;98.20;;;;;;5001333;28;20492;-82
2021/06/21 03:28:25;;;;;;;1.50;1.00;;;20.90;98.20;;;;;;5006318;28;20475;-82
2021/06/21 03:30:54;;;;;;;1.50;0.90;;;20.80;98.20;;;;;;4982074;28;20626;-83
2021/06/21 03:33:22;;;;;;;1.50;0.90;;;20.80;98.20;;;;;;5007753;28;20461;-82
2021/06/21 03:35:49;;;;;;;1.50;0.90;;;20.80;98.20;;;;;;4990910;28;20529;-83
2021/06/21 03:38:20;;;;;;;1.50;0.90;;;20.80;98.20;;;;;;5007103;28;20468;-81
2021/06/21 03:40:48;;;;;;;1.50;0.90;;;20.90;98.20;;;;;;4993063;28;20460;-82
2021/06/21 03:43:17;;;;;;;1.50;0.90;;;20.90;98.20;;;;;;5004644;28;20469;-84
2021/06/21 03:45:43;;;;;;;1.50;0.90;;;20.90;98.20;;;;;;5001383;28;20496;-83
2021/06/21 03:48:10;;;;;;;1.50;0.90;;;20.90;98.20;;;;;;4982553;28;20487;-81
2021/06/21 03:50:39;;;;;;;1.50;0.90;;;21.00;98.20;;;;;;5002940;28;20480;-83
2021/06/21 03:53:07;;;;;;;1.50;0.90;;;21.00;98.20;;;;;;5004975;28;20483;-82
2021/06/21 03:55:34;;;;;;;1.50;0.90;;;20.90;98.20;;;;;;4995388;28;20481;-84
2021/06/21 03:58:01;;;;;;;1.50;0.90;;;20.90;98.20;;;;;;5000792;28;20484;-82
2021/06/21 04:00:30;;;;;;;1.50;0.90;;;20.90;98.20;;;;;;4996520;28;20569;-82
2021/06/21 04:02:58;;;;;;;1.50;0.90;;;20.90;98.20;;;;;;4999988;28;20852;-82
2021/06/21 04:05:26;;;;;;;1.50;0.90;;;20.90;98.20;;;;;;5005831;28;20855;-83
2021/06/21 04:07:55;;;;;;;1.50;0.90;;;21.00;98.20;;;;;;5004574;28;20568;-84
2021/06/21 04:10:23;;;;;;;1.50;0.90;;;21.00;98.20;;;;;;4997176;28;20500;-81
2021/06/21 04:12:52;;;;;;;1.50;0.90;;;21.00;98.20;;;;;;5001298;28;21019;-82
2021/06/21 04:15:20;;;;;;;1.50;0.90;;;21.00;98.20;;;;;;5002054;28;20691;-84
2021/06/21 04:17:47;;;;;;;1.50;0.90;;;20.90;98.20;;;;;;5004344;28;20571;-82
2021/06/21 04:20:16;;;;;;;1.50;0.90;;;20.90;98.20;;;;;;4995199;28;20477;-82
2021/06/21 04:22:44;;;;;;;1.50;0.93;;;20.80;98.20;;;;;;5004805;28;20488;-83
2021/06/21 04:25:15;;;;;;;1.50;0.90;;;20.80;98.20;;;;;;5003578;28;20485;-80
2021/06/21 04:27:43;;;;;;;1.50;0.90;;;20.80;98.20;;;;;;4999262;28;20891;-79
2021/06/21 04:30:12;;;;;;;1.50;0.90;;;20.80;98.20;;;;;;5003108;28;20492;-81
2021/06/21 04:32:40;;;;;;;1.50;0.90;;;20.80;98.20;;;;;;5002655;28;20484;-80
2021/06/21 04:35:10;;;;;;;1.50;0.90;;;20.80;98.20;;;;;;5001379;28;20468;-80
2021/06/21 04:37:38;;;;;;;1.50;0.90;;;20.80;98.20;;;;;;4998079;28;20485;-79
2021/06/21 04:40:07;;;;;;;1.50;0.90;;;20.80;98.20;;;;;;4996866;28;20537;-82
2021/06/21 04:42:35;;;;;;;1.50;0.90;;;20.80;98.20;;;;;;4997640;28;21069;-82
2021/06/21 04:45:02;;;;;;;1.50;0.90;;;20.80;98.20;;;;;;5004002;28;20490;-82
2021/06/21 04:47:29;;;;;;;1.50;0.90;;;20.80;98.20;;;;;;5001765;28;20474;-82
2021/06/21 04:49:57;;;;;;;1.50;0.90;;;20.80;98.20;;;;;;4995872;28;20485;-82
2021/06/21 04:52:28;;;;;;;1.50;0.90;;;20.90;98.20;;;;;;4997178;28;20488;-81
2021/06/21 04:55:00;;;;;;;1.50;0.90;;;20.90;98.20;;;;;;4997090;28;20460;-82
2021/06/21 04:57:29;;;;;;;1.50;1.00;;;20.90;98.20;;;;;;4996111;28;20510;-82
2021/06/21 04:59:57;;;;;;;1.50;0.90;;;20.90;98.20;;;;;;4997945;28;20500;-81
2021/06/21 05:02:25;;;;;;;1.50;1.00;;;20.90;98.20;;;;;;4995529;28;20480;-80
2021/06/21 05:04:52;;;;;;;1.50;0.90;;;21.00;98.20;;;;;;5001003;28;20493;-79
2021/06/21 05:07:19;;;;;;;1.50;0.90;;;21.00;98.20;;;;;;5003770;28;20495;-77
2021/06/21 05:09:57;;;;;;;1.50;0.90;;;21.10;98.20;;;;;;4998711;28;20485;-81
2021/06/21 05:12:27;;;;;;;1.50;1.00;;;21.10;98.20;;;;;;4998879;28;20567;-78
2021/06/21 05:14:54;;;;;;;1.50;0.90;;;21.00;98.20;;;;;;5001996;28;20455;-78
2021/06/21 05:17:23;;;;;;;1.50;0.90;;;21.00;98.20;;;;;;4997575;28;20642;-81
2021/06/21 05:19:50;;;;;;;1.50;0.90;;;21.00;98.20;;;;;;5003540;28;20512;-79
2021/06/21 05:22:17;;;;;;;1.50;0.90;;;21.00;98.20;;;;;;4998188;28;20480;-79
2021/06/21 05:24:44;;;;;;;1.50;0.93;;;20.90;98.20;;;;;;5002433;28;20508;-78
2021/06/21 05:27:14;;;;;;;3.30;3.00;;;20.90;98.20;;;;;;4994421;28;20492;-79
2021/06/21 05:29:41;;;;;;;1.50;1.00;;;20.90;98.20;;;;;;5007039;28;20507;-78
2021/06/21 05:32:17;;;;;;;1.50;0.90;;;20.90;98.20;;;;;;5000886;28;20511;-78
2021/06/21 05:34:46;;;;;;;1.50;0.90;;;20.90;98.20;;;;;;5009560;28;20491;-77
2021/06/21 05:37:13;;;;;;;1.50;1.00;;;20.90;98.20;;;;;;5005553;28;20480;-79
2021/06/21 05:39:40;;;;;;;1.50;0.90;;;20.90;98.20;;;;;;4997042;28;20500;-79
2021/06/21 05:42:17;;;;;;;1.50;0.90;;;20.90;98.20;;;;;;5003673;28;20599;-80
2021/06/21 05:44:51;;;;;;;1.50;0.90;;;20.80;98.20;;;;;;4999468;28;20484;-81
2021/06/21 05:47:19;;;;;;;1.50;0.90;;;20.80;98.20;;;;;;5004292;28;20476;-81
2021/06/21 05:49:57;;;;;;;1.50;0.90;;;20.80;98.20;;;;;;5001187;28;20857;-82
2021/06/21 05:52:24;;;;;;;1.50;0.90;;;20.90;98.20;;;;;;5003032;28;20797;-81
2021/06/21 05:54:58;;;;;;;1.50;0.90;;;20.80;98.20;;;;;;5004843;28;20971;-82
2021/06/21 05:57:26;;;;;;;1.50;0.90;;;20.80;98.20;;;;;;5001062;28;20507;-81
2021/06/21 05:59:55;;;;;;;1.50;0.97;;;20.90;98.20;;;;;;5001018;28;20923;-82
2021/06/21 06:02:23;;;;;;;1.60;1.20;;;20.90;98.20;;;;;;4999254;28;20769;-79
2021/06/21 06:04:56;;;;;;;1.50;0.90;;;20.90;98.20;;;;;;5000675;28;20499;-81
2021/06/21 06:07:25;;;;;;;1.50;0.90;;;20.90;98.20;;;;;;4999362;28;20511;-79
2021/06/21 06:09:52;;;;;;;1.50;0.90;;;21.00;98.20;;;;;;5002621;28;20543;-80
2021/06/21 06:12:19;;;;;;;1.50;0.90;;;21.00;98.20;;;;;;5007760;28;20496;-79
2021/06/21 06:14:46;;;;;;;1.50;0.93;;;21.10;98.20;;;;;;5003376;28;20457;-79
2021/06/21 06:17:16;;;;;;;1.50;0.90;;;21.10;98.20;;;;;;5006480;28;21089;-80
2021/06/21 06:19:46;;;;;;;1.50;0.90;;;21.20;98.20;;;;;;5008172;28;20499;-81
2021/06/21 06:22:14;;;;;;;1.50;0.90;;;21.20;98.20;;;;;;5007944;28;20491;-80
2021/06/21 06:24:42;;;;;;;1.50;0.90;;;21.30;98.20;;;;;;5002373;28;20493;-80
2021/06/21 06:27:09;;;;;;;1.50;0.90;;;21.40;98.20;;;;;;4999234;28;20523;-79
2021/06/21 06:29:36;;;;;;;1.50;0.90;;;21.50;98.20;;;;;;5007533;28;20630;-81
2021/06/21 06:32:04;;;;;;;1.50;0.90;;;21.60;98.20;;;;;;5005058;28;20499;-77
2021/06/21 06:34:31;;;;;;;1.50;0.90;;;21.60;98.20;;;;;;5007157;28;20464;-79
2021/06/21 06:36:59;;;;;;;1.50;0.90;;;21.70;98.20;;;;;;4998024;28;20511;-79
2021/06/21 06:39:27;;;;;;;1.57;1.00;;;21.70;98.20;;;;;;5004729;28;21039;-81
2021/06/21 06:41:56;;;;;;;1.50;0.90;;;21.70;98.20;;;;;;5001742;28;20476;-80
2021/06/21 06:44:23;;;;;;;1.50;0.90;;;21.70;98.20;;;;;;5004199;28;21002;-80
2021/06/21 06:46:49;;;;;;;1.50;0.90;;;21.70;98.20;;;;;;5002602;28;20495;-78
2021/06/21 06:49:17;;;;;;;1.50;0.90;;;21.80;98.20;;;;;;5005519;28;20597;-80
2021/06/21 06:51:45;;;;;;;1.50;1.00;;;21.80;98.20;;;;;;4994317;28;20575;-79
2021/06/21 06:54:22;;;;;;;1.50;0.90;;;21.80;98.20;;;;;;5008930;28;20499;-79
2021/06/21 06:56:59;;;;;;;1.50;0.90;;;21.80;98.20;;;;;;4996538;28;20483;-80
2021/06/21 06:59:31;;;;;;;1.50;0.90;;;21.80;98.20;;;;;;5003518;28;20492;-79
2021/06/21 07:01:59;;;;;;;1.50;0.90;;;21.70;98.20;;;;;;5010552;28;20495;-81
2021/06/21 07:04:26;;;;;;;1.50;0.90;;;21.70;98.20;;;;;;5002483;28;20475;-82
2021/06/21 07:06:54;;;;;;;1.50;0.90;;;21.60;98.20;;;;;;5004456;28;20511;-79
2021/06/21 07:09:22;;;;;;;1.50;0.90;;;21.50;98.20;;;;;;5006262;28;20516;-79
2021/06/21 07:11:51;;;;;;;1.50;0.90;;;21.40;98.20;;;;;;5004410;28;20492;-80
2021/06/21 07:14:18;;;;;;;1.50;0.90;;;21.20;98.20;;;;;;5010119;28;20457;-81
2021/06/21 07:16:48;;;;;;;1.50;1.00;;;21.20;98.20;;;;;;5004874;28;20591;-81
2021/06/21 07:19:15;;;;;;;1.50;0.90;;;21.10;98.20;;;;;;5005594;28;20513;-82
2021/06/21 07:21:43;;;;;;;1.50;0.90;;;21.10;98.20;;;;;;4999497;28;20484;-82
2021/06/21 07:24:11;;;;;;;1.50;0.87;;;21.10;98.20;;;;;;5002941;28;20464;-79
2021/06/21 07:26:39;;;;;;;1.50;0.90;;;21.10;98.20;;;;;;5000061;28;20480;-83
2021/06/21 07:29:09;;;;;;;1.50;0.90;;;21.10;98.20;;;;;;5010897;28;20494;-80
2021/06/21 07:31:37;;;;;;;1.50;0.90;;;21.10;98.20;;;;;;4998810;28;20476;-82
2021/06/21 07:34:08;;;;;;;1.50;0.90;;;21.10;98.20;;;;;;5009667;28;20704;-81
2021/06/21 07:36:36;;;;;;;1.50;0.90;;;21.20;98.20;;;;;;5000940;28;20479;-82
2021/06/21 07:39:05;;;;;;;1.50;0.90;;;21.30;98.20;;;;;;5016980;28;20480;-81
2021/06/21 07:41:32;;;;;;;1.60;1.10;;;21.40;98.20;;;;;;5002045;28;20503;-81
2021/06/21 07:44:00;;;;;;;1.50;0.90;;;21.50;98.20;;;;;;5006661;28;21038;-81
2021/06/21 07:46:27;;;;;;;1.50;0.90;;;21.50;98.20;;;;;;4995729;28;21088;-77
2021/06/21 07:48:54;;;;;;;1.50;0.90;;;21.60;98.20;;;;;;5010702;28;20484;-79
2021/06/21 07:51:24;;;;;;;1.50;0.90;;;21.60;98.20;;;;;;4996293;28;20479;-80
2021/06/21 07:53:53;;;;;;;2.23;1.23;;;21.50;98.20;;;;;;5012069;28;20461;-79
2021/06/21 07:56:21;;;;;;;1.50;0.90;;;21.50;98.20;;;;;;4995029;28;20514;-80
2021/06/21 07:58:54;;;;;;;1.50;0.90;;;21.60;98.20;;;;;;5007980;28;20481;-80
2021/06/21 08:01:22;;;;;;;1.50;0.93;;;21.60;98.20;;;;;;4990790;28;20468;-81
2021/06/21 08:03:49;;;;;;;1.80;1.20;;;21.80;98.20;;;;;;5010761;28;20541;-83
2021/06/21 08:06:16;;;;;;;1.50;0.90;;;22.10;98.20;;;;;;4997154;28;20498;-82
2021/06/21 08:08:44;;;;;;;1.50;0.90;;;22.20;97.60;;;;;;5004586;28;20597;-80
2021/06/21 08:11:16;;;;;;;1.50;0.90;;;22.10;97.00;;;;;;4984803;28;21021;-80
2021/06/21 08:13:49;;;;;;;1.50;0.90;;;21.90;97.30;;;;;;5003619;28;20468;-81
2021/06/21 08:16:16;;;;;;;1.50;1.00;;;21.90;97.30;;;;;;4987283;28;20480;-81
2021/06/21 08:18:43;;;;;;;1.50;0.90;;;21.70;97.30;;;;;;5008325;28;20480;-80
2021/06/21 08:21:10;;;;;;;1.50;0.90;;;21.60;97.40;;;;;;5003008;28;20991;-80
2021/06/21 08:23:37;;;;;;;1.50;0.93;;;21.60;97.30;;;;;;5007073;28;20496;-81
2021/06/21 08:26:06;;;;;;;1.50;0.90;;;21.40;97.40;;;;;;4988128;28;20552;-81
2021/06/21 08:28:33;;;;;;;1.50;0.90;;;21.30;97.40;;;;;;5005472;28;20461;-79
2021/06/21 08:31:00;;;;;;;1.50;0.90;;;21.20;97.80;;;;;;4995669;28;20519;-80
2021/06/21 08:33:30;;;;;;;1.50;0.90;;;21.20;97.70;;;;;;5007075;28;20469;-82
2021/06/21 08:35:56;;;;;;;1.50;0.90;;;21.20;97.80;;;;;;4989680;28;20457;-81
2021/06/21 08:38:23;;;;;;;1.50;0.90;;;21.10;97.70;;;;;;5009441;28;20504;-80
2021/06/21 08:40:51;;;;;;;1.50;0.90;;;21.00;97.80;;;;;;4991552;28;20464;-81
2021/06/21 08:43:19;;;;;;;1.50;0.90;;;21.00;98.00;;;;;;5013740;28;20464;-80
2021/06/21 08:45:47;;;;;;;1.50;0.90;;;20.90;97.80;;;;;;4993079;28;20566;-81
2021/06/21 08:48:17;;;;;;;1.50;0.97;;;20.80;97.90;;;;;;5009400;28;20483;-84
2021/06/21 08:50:44;;;;;;;1.50;0.90;;;20.70;97.70;;;;;;4990024;28;20477;-80
2021/06/21 08:53:12;;;;;;;1.50;0.90;;;20.60;98.00;;;;;;4983802;28;21085;-79
2021/06/21 08:55:44;;;;;;;1.50;0.90;;;20.60;98.00;;;;;;4995694;28;20475;-81
2021/06/21 08:58:12;;;;;;;1.50;0.90;;;20.50;98.00;;;;;;4986163;28;20595;-81
2021/06/21 09:00:40;;;;;;;1.50;1.10;;;20.50;97.70;;;;;;5005291;28;20476;-80
2021/06/21 09:03:08;;;;;;;1.50;0.90;;;20.20;98.10;;;;;;5002055;28;20842;-82
2021/06/21 09:05:39;;;;;;;1.50;1.00;;;20.10;98.20;;;;;;4997251;28;20452;-79
2021/06/21 09:08:09;;;;;;;1.50;0.90;;;20.10;98.20;;;;;;5000981;28;20825;-81
2021/06/21 09:10:38;;;;;;;1.50;0.90;;;20.10;98.20;;;;;;4996335;28;20552;-80
2021/06/21 09:13:13;;;;;;;1.50;0.93;;;20.10;98.20;;;;;;4998835;28;20506;-79
2021/06/21 09:15:44;;;;;;;1.50;0.90;;;20.10;98.20;;;;;;5006178;28;20515;-80
2021/06/21 09:18:35;;;;;;;1.50;0.90;;;20.20;98.20;;;;;;4988234;28;20475;-80
2021/06/21 09:21:25;;;;;;;1.50;0.90;;;20.20;98.10;;;;;;4986382;28;20501;-82
2021/06/21 09:23:57;;;;;;;1.50;0.90;;;20.30;97.90;;;;;;5005120;28;20456;-82
2021/06/21 09:26:29;;;;;;;1.50;0.90;;;20.30;97.60;;;;;;5007065;28;20561;-81
2021/06/21 09:28:58;;;;;;;1.50;0.90;;;20.40;97.20;;;;;;5014338;28;20487;-82
2021/06/21 09:31:28;;;;;;;1.50;0.90;;;20.40;97.40;;;;;;5004805;28;20591;-82
2021/06/21 09:34:12;;;;;;;1.50;0.90;;;20.40;97.30;;;;;;5011733;28;20453;-83
2021/06/21 09:36:40;;;;;;;1.90;1.50;;;20.50;97.20;;;;;;4999639;28;20483;-82
2021/06/21 09:39:21;;;;;;;1.50;1.00;;;20.60;97.10;;;;;;5011484;28;20520;-82
2021/06/21 09:42:07;;;;;;;1.50;0.90;;;20.70;96.80;;;;;;5001028;28;20882;-81
2021/06/21 09:44:36;;;;;;;1.50;0.90;;;20.80;96.30;;;;;;5011682;28;20465;-82
2021/06/21 09:47:21;;;;;;;1.50;0.93;;;20.80;95.60;;;;;;5000240;28;20488;-83
2021/06/21 09:50:17;;;;;;;1.50;0.90;;;20.90;95.70;;;;;;5002981;28;20492;-79
2021/06/21 09:52:54;;;;;;;1.50;0.90;;;20.90;95.30;;;;;;5001060;28;20506;-84
2021/06/21 09:55:29;;;;;;;1.50;1.00;;;21.00;94.70;;;;;;5011795;28;20456;-83
2021/06/21 09:58:17;;;;;;;1.50;0.97;;;21.00;94.40;;;;;;5008304;28;20546;-81
2021/06/21 10:00:50;;;;;;;1.50;0.90;;;21.10;93.50;;;;;;4997840;28;20552;-78
2021/06/21 10:03:26;;;;;;;1.50;0.90;;;21.00;93.80;;;;;;4993485;28;20484;-80
2021/06/21 10:06:08;;;;;;;1.50;0.90;;;21.10;93.50;;;;;;4988094;28;20463;-81
2021/06/21 10:08:46;;;;;;;1.50;0.90;;;21.30;93.60;;;;;;5011007;28;20485;-79
2021/06/21 10:11:32;;;;;;;1.50;0.90;;;21.40;93.00;;;;;;4992572;28;20504;-79
2021/06/21 10:14:08;;;;;;;1.50;0.90;;;21.50;92.80;;;;;;5008225;28;20461;-79
2021/06/21 10:16:42;;;;;;;1.50;0.90;;;21.70;92.40;;;;;;4996476;28;21049;-82
2021/06/21 10:19:12;;;;;;;1.50;0.90;;;21.60;91.90;;;;;;5008314;28;20484;-79
2021/06/21 10:24:36;;;;;;;1.50;0.90;;;21.40;92.50;;;;;;4976018;28;20528;-76
2021/06/21 10:27:06;;;;;;;1.50;0.90;;;21.50;92.60;;;;;;4994284;28;20502;-79
2021/06/21 10:33:05;;;;;;;1.50;0.90;;;22.30;90.10;;;;;;4994325;28;20495;-79
2021/06/21 10:35:34;;;;;;;1.50;0.90;;;22.30;90.60;;;;;;4998742;28;20516;-81
2021/06/21 10:38:17;;;;;;;1.50;0.90;;;22.20;90.30;;;;;;4999703;28;20480;-75
2021/06/21 10:40:59;;;;;;;1.50;0.90;;;22.10;90.30;;;;;;4989900;28;20487;-79
2021/06/21 10:43:51;;;;;;;1.50;0.90;;;22.10;90.10;;;;;;4984772;28;20504;-77
2021/06/21 10:46:27;;;;;;;1.50;0.90;;;22.00;90.00;;;;;;4989744;28;21225;-78
2021/06/21 10:49:48;;;;;;;1.50;0.90;;;21.90;90.20;;;;;;5008619;28;20480;-78
2021/06/21 10:52:36;;;;;;;1.50;0.90;;;21.80;90.20;;;;;;4940246;28;20486;-77
2021/06/21 10:55:33;;;;;;;1.50;0.90;;;21.50;90.10;;;;;;4989978;28;20944;-78
2021/06/21 10:58:01;;;;;;;1.50;0.90;;;21.30;90.40;;;;;;4996821;28;20483;-76
2021/06/21 11:00:32;;;;;;;1.50;0.90;;;21.00;91.50;;;;;;5008813;28;20974;-77
2021/06/21 11:02:59;;;;;;;1.50;0.90;;;20.90;91.90;;;;;;4999007;28;20897;-77
2021/06/21 11:05:34;;;;;;;1.50;1.00;;;20.80;92.20;;;;;;4996568;28;20542;-78
2021/06/21 11:08:17;;;;;;;1.50;0.90;;;20.80;92.20;;;;;;4998268;28;20579;-80
2021/06/21 11:10:45;;;;;;;1.50;0.90;;;20.90;91.30;;;;;;4994313;28;20490;-80
2021/06/21 11:13:42;;;;;;;1.50;0.90;;;20.90;92.00;;;;;;4986626;28;20539;-79
2021/06/21 11:16:24;;;;;;;1.50;0.90;;;20.90;92.00;;;;;;4987748;28;20574;-78
2021/06/21 11:19:06;;;;;;;1.50;0.90;;;21.00;92.30;;;;;;5004634;28;20512;-77
2021/06/21 11:21:46;;;;;;;1.50;0.90;;;21.20;91.20;;;;;;4994423;28;20982;-78
2021/06/21 11:25:01;;;;;;;1.50;0.90;;;21.40;91.00;;;;;;4996522;28;20551;-77
2021/06/21 11:27:43;;;;;;;1.50;0.90;;;21.50;90.20;;;;;;4992095;28;20553;-76
2021/06/21 11:30:28;;;;;;;1.50;0.90;;;21.60;90.40;;;;;;4990714;28;20575;-77
2021/06/21 11:32:57;;;;;;;1.50;0.90;;;21.50;89.70;;;;;;5004228;28;20483;-77
2021/06/21 11:35:47;;;;;;;1.50;0.90;;;21.60;90.00;;;;;;4991909;28;20987;-78
2021/06/21 11:38:35;;;;;;;1.50;0.90;;;21.40;90.50;;;;;;4981396;28;20495;-76
2021/06/21 11:41:34;;;;;;;1.50;0.90;;;21.20;91.00;;;;;;4990439;28;20471;-78
2021/06/21 11:44:04;;;;;;;1.50;1.00;;;21.20;91.30;;;;;;4993425;28;20473;-80
2021/06/21 11:46:51;;;;;;;1.50;0.90;;;21.10;90.40;;;;;;4989518;28;20860;-77
2021/06/21 11:49:19;;;;;;;1.50;0.93;;;21.10;90.80;;;;;;5000236;28;20480;-77
2021/06/21 11:51:55;;;;;;;1.50;0.90;;;20.90;91.60;;;;;;4995643;28;20615;-76
2021/06/21 11:54:22;;;;;;;1.50;0.90;;;20.90;92.00;;;;;;5001796;28;20496;-77
2021/06/21 11:56:53;;;;;;;1.50;0.90;;;20.90;92.00;;;;;;4984230;28;21009;-78
2021/06/21 11:59:35;;;;;;;1.50;0.90;;;20.90;92.20;;;;;;4997492;28;20489;-76
2021/06/21 12:02:04;;;;;;;1.50;0.90;;;20.80;92.60;;;;;;4989685;28;20519;-79
2021/06/21 12:04:31;;;;;;;1.50;0.90;;;20.70;92.40;;;;;;4996195;28;20567;-77
2021/06/21 12:06:59;;;;;;;1.50;0.90;;;20.60;92.40;;;;;;4989306;28;20552;-77
2021/06/21 12:09:26;;;;;;;1.50;0.90;;;20.60;92.40;;;;;;4995188;28;21079;-75
2021/06/21 12:11:53;;;;;;;1.50;0.90;;;20.50;92.60;;;;;;4994244;28;20490;-78
2021/06/21 12:14:25;;;;;;;1.50;0.90;;;20.40;93.00;;;;;;4994948;28;20473;-77
2021/06/21 12:17:03;;;;;;;1.50;0.90;;;20.40;92.80;;;;;;4986000;28;20480;-76
2021/06/21 12:19:31;;;;;;;1.50;0.90;;;20.50;93.00;;;;;;4993987;28;20485;-76
2021/06/21 12:21:58;;;;;;;1.50;0.90;;;20.50;92.70;;;;;;4995204;28;20499;-76
2021/06/21 12:24:28;;;;;;;1.50;0.90;;;20.50;93.20;;;;;;4995181;28;20461;-78
2021/06/21 12:26:57;;;;;;;1.50;0.90;;;20.40;93.10;;;;;;4989830;28;20507;-80
2021/06/21 12:29:27;;;;;;;1.50;0.97;;;20.10;93.40;;;;;;4995406;28;20487;-77
2021/06/21 12:32:05;;;;;;;1.50;0.90;;;20.00;94.40;;;;;;4988102;28;20496;-79
2021/06/21 12:34:56;;;;;;;1.50;0.90;;;19.90;94.90;;;;;;4993018;28;20465;-78
2021/06/21 12:37:29;;;;;;;1.50;0.90;;;19.90;95.30;;;;;;4985193;28;20491;-77
2021/06/21 12:39:57;;;;;;;1.50;0.90;;;19.90;95.50;;;;;;4993344;28;20911;-79
2021/06/21 12:42:26;;;;;;;1.50;0.90;;;19.80;95.30;;;;;;4990486;28;20872;-79
2021/06/21 12:44:53;;;;;;;1.50;0.90;;;19.80;95.70;;;;;;4993606;28;20471;-77
2021/06/21 12:47:25;;;;;;;1.50;0.90;;;19.80;95.60;;;;;;4997536;28;20833;-77
2021/06/21 12:49:53;;;;;;;1.50;0.90;;;19.70;95.70;;;;;;4992886;28;20511;-76
2021/06/21 12:52:21;;;;;;;1.50;0.93;;;19.60;95.60;;;;;;4988941;28;20563;-77
2021/06/21 12:54:55;;;;;;;1.50;0.90;;;19.60;95.90;;;;;;4993304;28;20476;-79
2021/06/21 12:57:22;;;;;;;1.50;0.90;;;19.60;96.00;;;;;;4990494;28;20480;-81
2021/06/21 12:59:52;;;;;;;1.50;0.90;;;19.50;96.20;;;;;;4989923;28;20567;-80
2021/06/21 13:02:24;;;;;;;1.50;0.90;;;19.60;96.40;;;;;;4989233;28;20546;-80
2021/06/21 13:05:03;;;;;;;1.50;0.90;;;19.60;95.80;;;;;;4991492;28;20928;-75
2021/06/21 13:07:30;;;;;;;1.50;0.90;;;19.60;96.00;;;;;;4991309;28;20519;-80
2021/06/21 13:09:58;;;;;;;1.50;1.00;;;19.50;96.40;;;;;;5002502;28;20483;-77
2021/06/21 13:12:26;;;;;;;1.50;0.90;;;19.40;96.80;;;;;;4995650;28;20490;-76
2021/06/21 13:15:08;;;;;;;1.50;0.93;;;19.50;96.90;;;;;;4996213;28;20472;-76